sensor_id;sensor_type;location;lat;lon;timestamp;pressure;altitude;pressure_sealevel;temperature;humidity
77159;BME280;66129;45.890;13.714;2023-09-19T00:02:19;100671.34;;;20.76;100.00
77159;BME280;66129;45.890;13.714;2023-09-19T00:04:45;100681.69;;;20.81;100.00
77159;BME280;66129;45.890;13.714;2023-09-19T00:07:10;100680.69;;;20.86;100.00
77159;BME280;66129;45.890;13.714;2023-09-19T00:09:36;100673.03;;;20.80;100.00
77159;BME280;66129;45.890;13.714;2023-09-19T00:12:05;100680.81;;;20.79;100.00
77159;BME280;66129;45.890;13.714;2023-09-19T00:14:31;100674.84;;;20.74;100.00
77159;BME280;66129;45.890;13.714;2023-09-19T00:17:00;100658.53;;;20.67;100.00
77159;BME280;66129;45.890;13.714;2023-09-19T00:19:26;100669.88;;;20.65;100.00
77159;BME280;66129;45.890;13.714;2023-09-19T00:21:51;100666.97;;;20.77;100.00
77159;BME280;66129;45.890;13.714;2023-09-19T00:24:18;100668.75;;;20.76;100.00
77159;BME280;66129;45.890;13.714;2023-09-19T00:26:43;100675.69;;;20.76;100.00
77159;BME280;66129;45.890;13.714;2023-09-19T00:29:11;100662.72;;;20.73;100.00
77159;BME280;66129;45.890;13.714;2023-09-19T00:31:43;100662.72;;;20.73;100.00
77159;BME280;66129;45.890;13.714;2023-09-19T00:34:09;100662.84;;;20.68;100.00
77159;BME280;66129;45.890;13.714;2023-09-19T00:36:36;100665.25;;;20.77;100.00
77159;BME280;66129;45.890;13.714;2023-09-19T00:39:04;100673.97;;;20.75;100.00
77159;BME280;66129;45.890;13.714;2023-09-19T00:41:31;100663.53;;;20.76;100.00
77159;BME280;66129;45.890;13.714;2023-09-19T00:43:57;100665.31;;;20.73;100.00
77159;BME280;66129;45.890;13.714;2023-09-19T00:46:22;100660.00;;;20.80;100.00
77159;BME280;66129;45.890;13.714;2023-09-19T00:48:48;100662.59;;;20.79;100.00
77159;BME280;66129;45.890;13.714;2023-09-19T00:51:15;100662.13;;;20.62;100.00
77159;BME280;66129;45.890;13.714;2023-09-19T00:53:45;100660.34;;;20.64;100.00
77159;BME280;66129;45.890;13.714;2023-09-19T00:56:11;100665.50;;;20.65;100.00
77159;BME280;66129;45.890;13.714;2023-09-19T00:58:38;100656.91;;;20.62;100.00
77159;BME280;66129;45.890;13.714;2023-09-19T01:01:04;100659.59;;;20.59;100.00
77159;BME280;66129;45.890;13.714;2023-09-19T01:03:33;100650.31;;;20.47;100.00
77159;BME280;66129;45.890;13.714;2023-09-19T01:05:59;100660.59;;;20.53;100.00
77159;BME280;66129;45.890;13.714;2023-09-19T01:08:26;100659.72;;;20.53;100.00
77159;BME280;66129;45.890;13.714;2023-09-19T01:11:11;100652.72;;;20.55;100.00
77159;BME280;66129;45.890;13.714;2023-09-19T01:14:04;100646.59;;;20.57;100.00
77159;BME280;66129;45.890;13.714;2023-09-19T01:16:50;100651.72;;;20.62;100.00
77159;BME280;66129;45.890;13.714;2023-09-19T01:21:57;100661.25;;;20.63;100.00
77159;BME280;66129;45.890;13.714;2023-09-19T01:29:44;100656.19;;;20.55;100.00
77159;BME280;66129;45.890;13.714;2023-09-19T01:32:16;100660.66;;;20.50;100.00
77159;BME280;66129;45.890;13.714;2023-09-19T01:34:51;100665.94;;;20.47;100.00
77159;BME280;66129;45.890;13.714;2023-09-19T01:37:19;100664.31;;;20.42;100.00
77159;BME280;66129;45.890;13.714;2023-09-19T01:39:51;100663.47;;;20.41;100.00
77159;BME280;66129;45.890;13.714;2023-09-19T01:42:21;100666.00;;;20.43;100.00
77159;BME280;66129;45.890;13.714;2023-09-19T01:47:34;100667.78;;;20.41;100.00
77159;BME280;66129;45.890;13.714;2023-09-19T01:52:57;100670.41;;;20.41;100.00
77159;BME280;66129;45.890;13.714;2023-09-19T01:55:27;100666.84;;;20.45;100.00
77159;BME280;66129;45.890;13.714;2023-09-19T02:00:40;100662.41;;;20.50;100.00
77159;BME280;66129;45.890;13.714;2023-09-19T02:03:09;100678.78;;;20.55;100.00
77159;BME280;66129;45.890;13.714;2023-09-19T02:05:35;100678.06;;;20.48;100.00
77159;BME280;66129;45.890;13.714;2023-09-19T02:08:01;100684.88;;;20.54;100.00
77159;BME280;66129;45.890;13.714;2023-09-19T02:10:26;100689.84;;;20.64;100.00
77159;BME280;66129;45.890;13.714;2023-09-19T02:12:51;100669.94;;;20.62;100.00
77159;BME280;66129;45.890;13.714;2023-09-19T02:15:17;100683.09;;;20.56;100.00
77159;BME280;66129;45.890;13.714;2023-09-19T02:17:43;100676.19;;;20.55;100.00
77159;BME280;66129;45.890;13.714;2023-09-19T02:20:10;100676.88;;;20.61;100.00
77159;BME280;66129;45.890;13.714;2023-09-19T02:22:41;100679.28;;;20.70;100.00
77159;BME280;66129;45.890;13.714;2023-09-19T02:25:07;100681.28;;;20.59;100.00
77159;BME280;66129;45.890;13.714;2023-09-19T02:27:33;100670.28;;;20.47;100.00
77159;BME280;66129;45.890;13.714;2023-09-19T02:29:58;100669.31;;;20.51;100.00
77159;BME280;66129;45.890;13.714;2023-09-19T02:32:24;100675.41;;;20.51;100.00
77159;BME280;66129;45.890;13.714;2023-09-19T02:34:49;100670.16;;;20.53;100.00
77159;BME280;66129;45.890;13.714;2023-09-19T02:37:17;100669.06;;;20.63;100.00
77159;BME280;66129;45.890;13.714;2023-09-19T02:39:44;100662.16;;;20.60;100.00
77159;BME280;66129;45.890;13.714;2023-09-19T02:42:09;100667.50;;;20.54;100.00
77159;BME280;66129;45.890;13.714;2023-09-19T02:44:35;100646.00;;;20.46;100.00
77159;BME280;66129;45.890;13.714;2023-09-19T02:47:00;100670.78;;;20.62;100.00
77159;BME280;66129;45.890;13.714;2023-09-19T02:49:26;100665.81;;;20.53;100.00
77159;BME280;66129;45.890;13.714;2023-09-19T02:51:51;100668.38;;;20.55;100.00
77159;BME280;66129;45.890;13.714;2023-09-19T02:54:17;100656.28;;;20.51;100.00
77159;BME280;66129;45.890;13.714;2023-09-19T02:56:43;100659.84;;;20.48;100.00
77159;BME280;66129;45.890;13.714;2023-09-19T02:59:09;100667.72;;;20.45;100.00
77159;BME280;66129;45.890;13.714;2023-09-19T03:01:35;100672.84;;;20.48;100.00
77159;BME280;66129;45.890;13.714;2023-09-19T03:04:03;100661.56;;;20.48;100.00
77159;BME280;66129;45.890;13.714;2023-09-19T03:06:28;100667.66;;;20.47;100.00
77159;BME280;66129;45.890;13.714;2023-09-19T03:08:56;100656.59;;;20.39;100.00
77159;BME280;66129;45.890;13.714;2023-09-19T03:11:22;100666.53;;;20.58;100.00
77159;BME280;66129;45.890;13.714;2023-09-19T03:13:54;100664.44;;;20.74;100.00
77159;BME280;66129;45.890;13.714;2023-09-19T03:16:20;100653.28;;;20.69;100.00
77159;BME280;66129;45.890;13.714;2023-09-19T03:18:50;100646.59;;;20.57;100.00
77159;BME280;66129;45.890;13.714;2023-09-19T03:21:16;100656.09;;;20.60;100.00
77159;BME280;66129;45.890;13.714;2023-09-19T03:23:43;100645.53;;;20.66;100.00
77159;BME280;66129;45.890;13.714;2023-09-19T03:26:13;100655.91;;;20.69;100.00
77159;BME280;66129;45.890;13.714;2023-09-19T03:28:42;100657.00;;;20.59;100.00
77159;BME280;66129;45.890;13.714;2023-09-19T03:31:08;100654.44;;;20.56;100.00
77159;BME280;66129;45.890;13.714;2023-09-19T03:33:34;100647.59;;;20.52;100.00
77159;BME280;66129;45.890;13.714;2023-09-19T03:36:01;100651.66;;;20.63;100.00
77159;BME280;66129;45.890;13.714;2023-09-19T03:38:31;100657.69;;;20.65;100.00
77159;BME280;66129;45.890;13.714;2023-09-19T03:40:57;100653.44;;;20.61;100.00
77159;BME280;66129;45.890;13.714;2023-09-19T03:43:23;100651.59;;;20.66;100.00
77159;BME280;66129;45.890;13.714;2023-09-19T03:45:48;100657.63;;;20.68;100.00
77159;BME280;66129;45.890;13.714;2023-09-19T03:48:16;100639.25;;;20.74;100.00
77159;BME280;66129;45.890;13.714;2023-09-19T03:50:41;100638.16;;;20.84;100.00
77159;BME280;66129;45.890;13.714;2023-09-19T03:53:09;100644.31;;;20.82;100.00
77159;BME280;66129;45.890;13.714;2023-09-19T03:55:35;100647.91;;;20.76;100.00
77159;BME280;66129;45.890;13.714;2023-09-19T03:58:01;100635.69;;;20.78;100.00
77159;BME280;66129;45.890;13.714;2023-09-19T04:00:27;100638.28;;;20.80;100.00
77159;BME280;66129;45.890;13.714;2023-09-19T04:02:53;100633.06;;;20.80;100.00
77159;BME280;66129;45.890;13.714;2023-09-19T04:05:21;100652.13;;;20.82;100.00
77159;BME280;66129;45.890;13.714;2023-09-19T04:07:46;100653.84;;;20.83;100.00
77159;BME280;66129;45.890;13.714;2023-09-19T04:10:12;100654.97;;;20.71;100.00
77159;BME280;66129;45.890;13.714;2023-09-19T04:12:38;100665.38;;;20.71;100.00
77159;BME280;66129;45.890;13.714;2023-09-19T04:15:05;100660.88;;;20.78;100.00
77159;BME280;66129;45.890;13.714;2023-09-19T04:17:31;100659.00;;;20.84;100.00
77159;BME280;66129;45.890;13.714;2023-09-19T04:19:58;100671.13;;;20.85;100.00
77159;BME280;66129;45.890;13.714;2023-09-19T04:22:24;100673.84;;;20.82;100.00
77159;BME280;66129;45.890;13.714;2023-09-19T04:24:49;100668.63;;;20.82;100.00
77159;BME280;66129;45.890;13.714;2023-09-19T04:27:15;100669.47;;;20.83;100.00
77159;BME280;66129;45.890;13.714;2023-09-19T04:29:40;100664.16;;;20.87;100.00
77159;BME280;66129;45.890;13.714;2023-09-19T04:32:07;100671.91;;;20.90;100.00
77159;BME280;66129;45.890;13.714;2023-09-19T04:34:33;100661.38;;;20.95;100.00
77159;BME280;66129;45.890;13.714;2023-09-19T04:37:00;100672.66;;;20.95;100.00
77159;BME280;66129;45.890;13.714;2023-09-19T04:39:26;100664.94;;;20.91;100.00
77159;BME280;66129;45.890;13.714;2023-09-19T04:41:52;100673.47;;;20.97;100.00
77159;BME280;66129;45.890;13.714;2023-09-19T04:44:18;100687.41;;;20.96;100.00
77159;BME280;66129;45.890;13.714;2023-09-19T04:46:44;100683.25;;;20.88;100.00
77159;BME280;66129;45.890;13.714;2023-09-19T04:49:11;100678.97;;;20.85;100.00
77159;BME280;66129;45.890;13.714;2023-09-19T04:51:37;100695.34;;;20.90;100.00
77159;BME280;66129;45.890;13.714;2023-09-19T04:54:03;100686.00;;;20.82;100.00
77159;BME280;66129;45.890;13.714;2023-09-19T04:56:29;100692.81;;;20.87;100.00
77159;BME280;66129;45.890;13.714;2023-09-19T04:58:55;100697.94;;;20.92;100.00
77159;BME280;66129;45.890;13.714;2023-09-19T05:01:20;100699.66;;;20.93;100.00
77159;BME280;66129;45.890;13.714;2023-09-19T05:03:47;100698.66;;;20.98;100.00
77159;BME280;66129;45.890;13.714;2023-09-19T05:06:17;100693.47;;;20.97;100.00
77159;BME280;66129;45.890;13.714;2023-09-19T05:08:43;100694.13;;;21.05;100.00
77159;BME280;66129;45.890;13.714;2023-09-19T05:11:08;100688.84;;;21.08;100.00
77159;BME280;66129;45.890;13.714;2023-09-19T05:13:34;100702.50;;;21.17;100.00
77159;BME280;66129;45.890;13.714;2023-09-19T05:16:00;100696.53;;;21.14;100.00
77159;BME280;66129;45.890;13.714;2023-09-19T05:18:29;100702.50;;;21.17;100.00
77159;BME280;66129;45.890;13.714;2023-09-19T05:20:54;100698.19;;;21.18;100.00
77159;BME280;66129;45.890;13.714;2023-09-19T05:23:20;100694.69;;;21.19;100.00
77159;BME280;66129;45.890;13.714;2023-09-19T05:25:46;100702.34;;;21.25;100.00
77159;BME280;66129;45.890;13.714;2023-09-19T05:28:12;100697.97;;;21.27;100.00
77159;BME280;66129;45.890;13.714;2023-09-19T05:30:40;100697.84;;;21.29;100.00
77159;BME280;66129;45.890;13.714;2023-09-19T05:33:06;100694.28;;;21.33;100.00
77159;BME280;66129;45.890;13.714;2023-09-19T05:35:33;100691.78;;;21.29;100.00
77159;BME280;66129;45.890;13.714;2023-09-19T05:37:59;100703.03;;;21.31;100.00
77159;BME280;66129;45.890;13.714;2023-09-19T05:40:25;100696.81;;;21.36;100.00
77159;BME280;66129;45.890;13.714;2023-09-19T05:42:51;100700.25;;;21.38;100.00
77159;BME280;66129;45.890;13.714;2023-09-19T05:45:17;100710.56;;;21.43;100.00
77159;BME280;66129;45.890;13.714;2023-09-19T05:47:48;100708.00;;;21.41;100.00
77159;BME280;66129;45.890;13.714;2023-09-19T05:50:15;100714.78;;;21.48;100.00
77159;BME280;66129;45.890;13.714;2023-09-19T05:52:42;100724.31;;;21.49;100.00
77159;BME280;66129;45.890;13.714;2023-09-19T05:55:09;100713.91;;;21.48;100.00
77159;BME280;66129;45.890;13.714;2023-09-19T05:57:36;100715.69;;;21.46;100.00
77159;BME280;66129;45.890;13.714;2023-09-19T06:00:05;100706.19;;;21.43;100.00
77159;BME280;66129;45.890;13.714;2023-09-19T06:02:36;100714.72;;;21.50;100.00
77159;BME280;66129;45.890;13.714;2023-09-19T06:05:04;100719.19;;;21.45;100.00
77159;BME280;66129;45.890;13.714;2023-09-19T06:07:35;100712.38;;;21.41;100.00
77159;BME280;66129;45.890;13.714;2023-09-19T06:10:03;100714.47;;;21.60;100.00
77159;BME280;66129;45.890;13.714;2023-09-19T06:12:31;100721.03;;;21.76;100.00
77159;BME280;66129;45.890;13.714;2023-09-19T06:14:58;100711.53;;;21.74;100.00
77159;BME280;66129;45.890;13.714;2023-09-19T06:17:24;100716.50;;;21.83;100.00
77159;BME280;66129;45.890;13.714;2023-09-19T06:19:52;100727.63;;;21.89;100.00
77159;BME280;66129;45.890;13.714;2023-09-19T06:22:17;100721.59;;;21.87;100.00
77159;BME280;66129;45.890;13.714;2023-09-19T06:24:44;100728.50;;;21.90;100.00
77159;BME280;66129;45.890;13.714;2023-09-19T06:27:10;100739.88;;;21.87;100.00
77159;BME280;66129;45.890;13.714;2023-09-19T06:29:35;100748.03;;;22.06;100.00
77159;BME280;66129;45.890;13.714;2023-09-19T06:32:07;100749.19;;;22.58;100.00
77159;BME280;66129;45.890;13.714;2023-09-19T06:34:34;100740.50;;;23.40;100.00
77159;BME280;66129;45.890;13.714;2023-09-19T06:36:59;100747.47;;;24.40;100.00
77159;BME280;66129;45.890;13.714;2023-09-19T06:39:25;100749.88;;;25.13;95.05
77159;BME280;66129;45.890;13.714;2023-09-19T06:41:51;100752.88;;;25.47;92.14
77159;BME280;66129;45.890;13.714;2023-09-19T06:44:19;100759.72;;;25.71;90.13
77159;BME280;66129;45.890;13.714;2023-09-19T06:46:47;100767.44;;;26.15;88.36
77159;BME280;66129;45.890;13.714;2023-09-19T06:49:17;100759.03;;;26.84;84.30
77159;BME280;66129;45.890;13.714;2023-09-19T06:51:42;100765.28;;;27.00;82.86
77159;BME280;66129;45.890;13.714;2023-09-19T06:54:09;100769.13;;;27.46;82.17
77159;BME280;66129;45.890;13.714;2023-09-19T06:56:35;100774.16;;;27.86;79.55
77159;BME280;66129;45.890;13.714;2023-09-19T06:59:00;100779.03;;;28.28;78.62
77159;BME280;66129;45.890;13.714;2023-09-19T07:01:27;100789.72;;;28.89;73.59
77159;BME280;66129;45.890;13.714;2023-09-19T07:03:53;100782.09;;;28.83;73.10
77159;BME280;66129;45.890;13.714;2023-09-19T07:06:19;100794.63;;;28.80;71.98
77159;BME280;66129;45.890;13.714;2023-09-19T07:08:44;100788.63;;;28.45;74.30
77159;BME280;66129;45.890;13.714;2023-09-19T07:11:10;100798.63;;;28.05;74.36
77159;BME280;66129;45.890;13.714;2023-09-19T07:13:37;100793.88;;;27.25;77.23
77159;BME280;66129;45.890;13.714;2023-09-19T07:16:03;100809.88;;;27.03;78.65
77159;BME280;66129;45.890;13.714;2023-09-19T07:18:29;100800.63;;;26.76;80.66
77159;BME280;66129;45.890;13.714;2023-09-19T07:20:58;100816.69;;;26.88;79.88
77159;BME280;66129;45.890;13.714;2023-09-19T07:23:30;100815.91;;;26.86;81.36
77159;BME280;66129;45.890;13.714;2023-09-19T07:26:01;100821.47;;;26.80;82.56
77159;BME280;66129;45.890;13.714;2023-09-19T07:28:27;100823.66;;;26.71;81.73
77159;BME280;66129;45.890;13.714;2023-09-19T07:30:53;100825.97;;;26.58;82.64
77159;BME280;66129;45.890;13.714;2023-09-19T07:33:19;100836.63;;;26.55;83.61
77159;BME280;66129;45.890;13.714;2023-09-19T07:35:48;100834.38;;;27.77;79.28
77159;BME280;66129;45.890;13.714;2023-09-19T07:38:13;100832.38;;;28.65;74.45
77159;BME280;66129;45.890;13.714;2023-09-19T07:40:39;100837.50;;;28.68;72.87
77159;BME280;66129;45.890;13.714;2023-09-19T07:43:05;100831.13;;;28.72;72.12
77159;BME280;66129;45.890;13.714;2023-09-19T07:45:31;100836.63;;;28.18;72.75
77159;BME280;66129;45.890;13.714;2023-09-19T07:47:57;100840.66;;;27.91;74.78
77159;BME280;66129;45.890;13.714;2023-09-19T07:50:23;100848.63;;;27.73;75.33
77159;BME280;66129;45.890;13.714;2023-09-19T07:52:50;100845.22;;;28.55;70.08
77159;BME280;66129;45.890;13.714;2023-09-19T07:55:19;100844.00;;;29.26;68.63
77159;BME280;66129;45.890;13.714;2023-09-19T07:57:48;100840.66;;;28.25;70.15
77159;BME280;66129;45.890;13.714;2023-09-19T08:00:14;100837.53;;;27.66;72.54
77159;BME280;66129;45.890;13.714;2023-09-19T08:02:40;100850.00;;;27.44;74.20
77159;BME280;66129;45.890;13.714;2023-09-19T08:05:07;100852.75;;;28.12;71.88
77159;BME280;66129;45.890;13.714;2023-09-19T08:07:51;100869.41;;;27.79;72.92
77159;BME280;66129;45.890;13.714;2023-09-19T08:10:17;100862.16;;;28.18;70.70
77159;BME280;66129;45.890;13.714;2023-09-19T08:12:45;100856.53;;;28.57;70.36
77159;BME280;66129;45.890;13.714;2023-09-19T08:15:20;100850.16;;;28.29;68.24
77159;BME280;66129;45.890;13.714;2023-09-19T08:17:49;100855.09;;;27.66;70.06
77159;BME280;66129;45.890;13.714;2023-09-19T08:20:15;100858.22;;;27.00;73.34
77159;BME280;66129;45.890;13.714;2023-09-19T08:22:52;100859.38;;;26.56;76.35
77159;BME280;66129;45.890;13.714;2023-09-19T08:25:19;100865.03;;;26.47;77.77
77159;BME280;66129;45.890;13.714;2023-09-19T08:27:46;100871.06;;;26.69;79.67
77159;BME280;66129;45.890;13.714;2023-09-19T08:30:14;100859.19;;;27.36;75.69
77159;BME280;66129;45.890;13.714;2023-09-19T08:32:40;100866.84;;;27.04;76.96
77159;BME280;66129;45.890;13.714;2023-09-19T08:35:08;100878.25;;;26.66;78.15
77159;BME280;66129;45.890;13.714;2023-09-19T08:37:34;100889.03;;;26.20;80.68
77159;BME280;66129;45.890;13.714;2023-09-19T08:40:00;100893.59;;;25.72;82.04
77159;BME280;66129;45.890;13.714;2023-09-19T08:42:26;100894.72;;;25.67;77.09
77159;BME280;66129;45.890;13.714;2023-09-19T08:44:52;100893.84;;;25.66;74.26
77159;BME280;66129;45.890;13.714;2023-09-19T08:47:40;100892.38;;;25.38;75.94
77159;BME280;66129;45.890;13.714;2023-09-19T08:50:27;100899.56;;;25.10;75.21
77159;BME280;66129;45.890;13.714;2023-09-19T08:52:55;100898.69;;;24.86;77.67
77159;BME280;66129;45.890;13.714;2023-09-19T08:55:26;100904.13;;;24.58;74.80
77159;BME280;66129;45.890;13.714;2023-09-19T08:57:52;100900.06;;;24.23;74.82
77159;BME280;66129;45.890;13.714;2023-09-19T09:00:25;100911.94;;;24.07;73.67
77159;BME280;66129;45.890;13.714;2023-09-19T09:02:57;100911.69;;;23.62;74.99
77159;BME280;66129;45.890;13.714;2023-09-19T09:05:24;100923.97;;;23.31;77.93
77159;BME280;66129;45.890;13.714;2023-09-19T09:07:50;100931.28;;;22.88;79.95
77159;BME280;66129;45.890;13.714;2023-09-19T09:10:22;100944.59;;;22.79;80.35
77159;BME280;66129;45.890;13.714;2023-09-19T09:12:51;100944.66;;;22.46;83.50
77159;BME280;66129;45.890;13.714;2023-09-19T09:15:22;100955.72;;;22.20;85.15
77159;BME280;66129;45.890;13.714;2023-09-19T09:17:50;100941.94;;;21.79;88.95
77159;BME280;66129;45.890;13.714;2023-09-19T09:20:19;100939.00;;;21.14;92.67
77159;BME280;66129;45.890;13.714;2023-09-19T09:22:55;100940.09;;;20.55;94.65
77159;BME280;66129;45.890;13.714;2023-09-19T09:25:46;100944.03;;;20.30;97.01
77159;BME280;66129;45.890;13.714;2023-09-19T09:28:19;100962.66;;;20.08;97.32
77159;BME280;66129;45.890;13.714;2023-09-19T09:30:45;100984.53;;;19.94;98.38
77159;BME280;66129;45.890;13.714;2023-09-19T09:33:12;100991.63;;;19.81;99.05
77159;BME280;66129;45.890;13.714;2023-09-19T09:35:49;100999.59;;;19.72;100.00
77159;BME280;66129;45.890;13.714;2023-09-19T09:38:19;101009.47;;;19.46;100.00
77159;BME280;66129;45.890;13.714;2023-09-19T09:40:49;100991.59;;;19.19;100.00
77159;BME280;66129;45.890;13.714;2023-09-19T09:43:29;101000.53;;;18.92;100.00
77159;BME280;66129;45.890;13.714;2023-09-19T09:48:58;101011.34;;;18.48;100.00
77159;BME280;66129;45.890;13.714;2023-09-19T09:51:49;101014.84;;;18.43;100.00
77159;BME280;66129;45.890;13.714;2023-09-19T09:54:29;101019.31;;;18.29;100.00
77159;BME280;66129;45.890;13.714;2023-09-19T09:57:11;101021.06;;;18.18;100.00
77159;BME280;66129;45.890;13.714;2023-09-19T10:02:17;100999.47;;;18.16;100.00
77159;BME280;66129;45.890;13.714;2023-09-19T10:04:53;101012.41;;;18.28;100.00
77159;BME280;66129;45.890;13.714;2023-09-19T10:07:38;101004.53;;;18.34;100.00
77159;BME280;66129;45.890;13.714;2023-09-19T10:10:07;101011.31;;;18.53;100.00
77159;BME280;66129;45.890;13.714;2023-09-19T10:12:44;101009.47;;;18.65;100.00
77159;BME280;66129;45.890;13.714;2023-09-19T10:15:15;101011.03;;;18.83;100.00
77159;BME280;66129;45.890;13.714;2023-09-19T10:17:44;101010.88;;;19.70;98.83
77159;BME280;66129;45.890;13.714;2023-09-19T10:20:13;100991.06;;;19.61;96.13
77159;BME280;66129;45.890;13.714;2023-09-19T10:23:03;101003.19;;;19.62;97.72
77159;BME280;66129;45.890;13.714;2023-09-19T10:25:36;100990.09;;;19.67;94.56
77159;BME280;66129;45.890;13.714;2023-09-19T10:28:02;100995.28;;;19.70;94.73
77159;BME280;66129;45.890;13.714;2023-09-19T10:30:32;100980.34;;;19.82;95.57
77159;BME280;66129;45.890;13.714;2023-09-19T10:33:03;100965.47;;;19.92;94.31
77159;BME280;66129;45.890;13.714;2023-09-19T10:35:32;100976.56;;;20.57;92.55
77159;BME280;66129;45.890;13.714;2023-09-19T10:38:00;100971.38;;;21.85;85.44
77159;BME280;66129;45.890;13.714;2023-09-19T10:40:29;100978.78;;;22.73;79.41
77159;BME280;66129;45.890;13.714;2023-09-19T10:43:05;100974.44;;;22.39;79.12
77159;BME280;66129;45.890;13.714;2023-09-19T10:45:34;100976.25;;;22.68;76.73
77159;BME280;66129;45.890;13.714;2023-09-19T10:48:01;100967.38;;;23.09;73.56
77159;BME280;66129;45.890;13.714;2023-09-19T10:53:11;100959.56;;;22.42;73.66
77159;BME280;66129;45.890;13.714;2023-09-19T10:55:37;100951.69;;;22.07;76.40
77159;BME280;66129;45.890;13.714;2023-09-19T10:58:05;100954.25;;;22.10;76.35
77159;BME280;66129;45.890;13.714;2023-09-19T11:03:22;100952.91;;;21.93;76.51
77159;BME280;66129;45.890;13.714;2023-09-19T11:06:16;100938.50;;;22.48;73.37
77159;BME280;66129;45.890;13.714;2023-09-19T11:08:58;100946.47;;;22.75;72.69
77159;BME280;66129;45.890;13.714;2023-09-19T11:11:45;100944.69;;;23.94;67.09
77159;BME280;66129;45.890;13.714;2023-09-19T11:30:33;100920.25;;;27.07;56.42
77159;BME280;66129;45.890;13.714;2023-09-19T11:33:22;100915.69;;;27.29;52.76
77159;BME280;66129;45.890;13.714;2023-09-19T11:35:59;100918.78;;;27.57;52.40
77159;BME280;66129;45.890;13.714;2023-09-19T11:46:29;100895.00;;;28.29;50.17
77159;BME280;66129;45.890;13.714;2023-09-19T11:49:05;100903.47;;;27.28;50.67
77159;BME280;66129;45.890;13.714;2023-09-19T11:51:51;100917.56;;;27.09;52.16
77159;BME280;66129;45.890;13.714;2023-09-19T11:54:20;100928.50;;;27.18;51.55
77159;BME280;66129;45.890;13.714;2023-09-19T11:56:52;100914.41;;;27.74;49.05
77159;BME280;66129;45.890;13.714;2023-09-19T11:59:38;100921.47;;;28.09;47.48
77159;BME280;66129;45.890;13.714;2023-09-19T12:02:05;100913.66;;;27.72;47.10
77159;BME280;66129;45.890;13.714;2023-09-19T12:04:37;100907.59;;;28.23;47.49
77159;BME280;66129;45.890;13.714;2023-09-19T12:07:14;100904.84;;;28.26;45.84
77159;BME280;66129;45.890;13.714;2023-09-19T12:09:51;100903.59;;;28.33;47.39
77159;BME280;66129;45.890;13.714;2023-09-19T12:12:28;100894.72;;;28.17;47.56
77159;BME280;66129;45.890;13.714;2023-09-19T12:14:56;100891.66;;;28.26;47.03
77159;BME280;66129;45.890;13.714;2023-09-19T12:17:40;100885.13;;;28.33;46.88
77159;BME280;66129;45.890;13.714;2023-09-19T12:20:08;100892.16;;;27.98;47.14
77159;BME280;66129;45.890;13.714;2023-09-19T12:22:46;100884.78;;;27.88;49.10
77159;BME280;66129;45.890;13.714;2023-09-19T12:25:15;100904.16;;;27.87;49.68
77159;BME280;66129;45.890;13.714;2023-09-19T12:27:53;100900.50;;;27.89;50.93
77159;BME280;66129;45.890;13.714;2023-09-19T12:30:27;100914.22;;;27.96;49.49
77159;BME280;66129;45.890;13.714;2023-09-19T12:32:53;100916.63;;;27.83;50.60
77159;BME280;66129;45.890;13.714;2023-09-19T12:35:33;100909.53;;;27.67;52.10
77159;BME280;66129;45.890;13.714;2023-09-19T12:38:03;100915.84;;;27.81;50.39
77159;BME280;66129;45.890;13.714;2023-09-19T12:40:29;100897.69;;;27.75;48.22
77159;BME280;66129;45.890;13.714;2023-09-19T12:42:58;100899.88;;;27.47;49.13
77159;BME280;66129;45.890;13.714;2023-09-19T12:45:25;100891.16;;;27.10;50.33
77159;BME280;66129;45.890;13.714;2023-09-19T12:48:25;100914.19;;;26.85;51.01
77159;BME280;66129;45.890;13.714;2023-09-19T12:53:32;100902.84;;;26.45;51.06
77159;BME280;66129;45.890;13.714;2023-09-19T12:55:59;100910.53;;;26.49;53.28
77159;BME280;66129;45.890;13.714;2023-09-19T12:58:25;100910.69;;;26.66;52.68
77159;BME280;66129;45.890;13.714;2023-09-19T13:00:51;100911.56;;;26.85;52.36
77159;BME280;66129;45.890;13.714;2023-09-19T13:05:56;100923.00;;;26.84;51.36
77159;BME280;66129;45.890;13.714;2023-09-19T13:08:33;100926.31;;;26.89;50.22
77159;BME280;66129;45.890;13.714;2023-09-19T13:11:04;100918.94;;;26.77;50.83
77159;BME280;66129;45.890;13.714;2023-09-19T13:16:10;100923.59;;;26.91;51.33
77159;BME280;66129;45.890;13.714;2023-09-19T13:18:43;100919.56;;;27.02;50.38
77159;BME280;66129;45.890;13.714;2023-09-19T13:21:14;100926.41;;;27.26;51.25
77159;BME280;66129;45.890;13.714;2023-09-19T13:23:53;100929.47;;;26.97;50.79
77159;BME280;66129;45.890;13.714;2023-09-19T13:26:27;100921.00;;;26.71;49.36
77159;BME280;66129;45.890;13.714;2023-09-19T13:28:54;100935.19;;;26.67;50.96
77159;BME280;66129;45.890;13.714;2023-09-19T13:31:20;100933.47;;;26.66;52.61
77159;BME280;66129;45.890;13.714;2023-09-19T13:33:47;100923.97;;;26.63;51.57
77159;BME280;66129;45.890;13.714;2023-09-19T13:36:13;100913.16;;;26.69;51.22
77159;BME280;66129;45.890;13.714;2023-09-19T13:38:40;100915.72;;;26.71;51.84
77159;BME280;66129;45.890;13.714;2023-09-19T13:41:08;100915.94;;;27.05;52.63
77159;BME280;66129;45.890;13.714;2023-09-19T13:43:35;100914.94;;;27.27;52.40
77159;BME280;66129;45.890;13.714;2023-09-19T13:46:01;100899.69;;;27.52;49.85